Terminal Aerodrome Forecast
Issued by NWS

Home | Current Version | Previous Version | Text Only | Print | Product List | Glossary On
Versions: 1 2 3 4 5 6 7 8 9 10 11 12
000
FTUS46 KSEW 310521
TAFCLM
TAF
KCLM 310521Z 3106/0106 27007KT P6SM SKC
     FM311200 VRB04KT P6SM SKC
     FM312300 30008KT P6SM SKC=

USA.gov is the U.S. government's official web portal to all federal, state and local government web resources and services.